createdAt,value
2023-01-31T00:01:33.358Z,10.30
2023-01-31T00:04:03.899Z,10.30
2023-01-31T00:06:33.373Z,10.10
2023-01-31T00:09:01.563Z,9.98
2023-01-31T00:11:30.230Z,9.38
2023-01-31T00:13:58.897Z,9.75
2023-01-31T00:16:26.628Z,9.75
2023-01-31T00:18:53.312Z,10.25
2023-01-31T00:21:22.577Z,10.18
2023-01-31T00:23:50.321Z,10.48
2023-01-31T00:26:19.885Z,10.55
2023-01-31T00:28:48.228Z,10.60
2023-01-31T00:31:16.701Z,10.23
2023-01-31T00:33:44.922Z,10.93
2023-01-31T00:36:16.964Z,10.75
2023-01-31T00:38:44.818Z,10.93
2023-01-31T00:41:12.219Z,10.32
2023-01-31T00:43:38.817Z,10.27
2023-01-31T00:46:06.429Z,10.70
2023-01-31T00:48:33.649Z,11.55
2023-01-31T00:51:00.342Z,10.40
2023-01-31T00:53:27.060Z,10.43
2023-01-31T00:55:56.477Z,11.18
2023-01-31T00:58:23.079Z,10.45
2023-01-31T01:00:49.756Z,11.00
2023-01-31T01:03:16.486Z,11.50
2023-01-31T01:05:43.021Z,11.57
2023-01-31T01:08:10.180Z,11.60
2023-01-31T01:10:36.903Z,11.73
2023-01-31T01:13:05.719Z,11.73
2023-01-31T01:15:32.859Z,11.98
2023-01-31T01:17:59.508Z,10.90
2023-01-31T01:20:26.117Z,11.85
2023-01-31T01:22:53.580Z,11.65
2023-01-31T01:25:20.789Z,11.70
2023-01-31T01:27:47.557Z,12.20
2023-01-31T01:30:14.294Z,11.60
2023-01-31T01:32:40.946Z,11.70
2023-01-31T01:35:08.034Z,13.50
2023-01-31T01:37:34.676Z,13.38
2023-01-31T01:40:01.248Z,12.27
2023-01-31T01:42:33.229Z,13.02
2023-01-31T01:45:02.375Z,12.02
2023-01-31T01:47:54.265Z,13.45
2023-01-31T01:50:35.108Z,13.15
2023-01-31T01:53:10.956Z,12.90
2023-01-31T01:55:51.749Z,13.60
2023-01-31T01:58:25.386Z,14.05
2023-01-31T02:00:52.782Z,14.20
2023-01-31T02:03:19.599Z,12.82
2023-01-31T02:05:49.535Z,14.73
2023-01-31T02:08:19.247Z,15.05
2023-01-31T02:11:11.845Z,14.52
2023-01-31T02:13:41.549Z,15.18
2023-01-31T02:16:08.508Z,12.80
2023-01-31T02:18:35.679Z,13.18
2023-01-31T02:21:33.449Z,14.25
2023-01-31T02:24:41.243Z,12.23
2023-01-31T02:27:25.970Z,12.82
2023-01-31T02:30:23.057Z,11.13
2023-01-31T02:33:00.696Z,12.73
2023-01-31T02:36:01.067Z,13.10
2023-01-31T02:38:52.627Z,12.82
2023-01-31T02:41:37.913Z,12.30
2023-01-31T02:44:41.838Z,12.88
2023-01-31T02:47:19.851Z,13.13
2023-01-31T02:50:01.020Z,13.35
2023-01-31T02:52:42.844Z,14.40
2023-01-31T02:55:37.846Z,13.75
2023-01-31T02:58:08.578Z,14.15
2023-01-31T03:00:38.919Z,14.00
2023-01-31T03:03:08.067Z,12.57
2023-01-31T03:05:34.736Z,14.23
2023-01-31T03:08:05.328Z,13.15
2023-01-31T03:10:57.863Z,14.00
2023-01-31T03:13:44.064Z,13.10
2023-01-31T03:16:41.486Z,12.63
2023-01-31T03:19:14.092Z,12.43
2023-01-31T03:22:08.278Z,11.88
2023-01-31T03:24:35.555Z,11.65
2023-01-31T03:27:03.380Z,11.90
2023-01-31T03:29:36.277Z,11.10
2023-01-31T03:32:11.980Z,11.15
2023-01-31T03:34:39.302Z,11.90
2023-01-31T03:37:43.148Z,12.23
2023-01-31T03:40:37.103Z,12.55
2023-01-31T03:43:21.997Z,11.10
2023-01-31T03:46:10.660Z,11.35
2023-01-31T03:48:42.012Z,10.77
2023-01-31T03:51:15.119Z,9.43
2023-01-31T03:53:48.390Z,10.70
2023-01-31T03:56:25.526Z,10.60
2023-01-31T03:58:58.917Z,10.90
2023-01-31T04:01:29.512Z,10.98
2023-01-31T04:04:03.652Z,10.00
2023-01-31T04:06:30.315Z,8.85
2023-01-31T04:08:56.903Z,11.95
2023-01-31T04:11:26.175Z,11.73
2023-01-31T04:13:52.926Z,12.18
2023-01-31T04:16:19.903Z,9.95
2023-01-31T04:18:46.542Z,10.88
2023-01-31T04:21:15.374Z,11.25
2023-01-31T04:23:42.038Z,11.50
2023-01-31T04:26:08.585Z,11.00
2023-01-31T04:28:35.169Z,11.65
2023-01-31T04:31:01.819Z,11.30
2023-01-31T04:33:28.517Z,11.32
2023-01-31T04:35:55.070Z,13.13
2023-01-31T04:38:21.652Z,12.07
2023-01-31T04:40:48.249Z,12.43
2023-01-31T04:43:15.065Z,12.98
2023-01-31T04:45:41.790Z,11.50
2023-01-31T04:48:09.063Z,13.15
2023-01-31T04:50:35.620Z,13.10
2023-01-31T04:53:02.271Z,11.80
2023-01-31T04:55:29.048Z,13.13
2023-01-31T04:57:55.635Z,12.07
2023-01-31T05:00:22.404Z,10.55
2023-01-31T05:02:50.597Z,11.35
2023-01-31T05:05:17.270Z,11.43
2023-01-31T05:07:44.914Z,12.07
2023-01-31T05:10:12.296Z,11.48
2023-01-31T05:12:39.271Z,11.65
2023-01-31T05:15:07.872Z,11.85
2023-01-31T05:17:34.618Z,11.27
2023-01-31T05:20:01.534Z,12.00
2023-01-31T05:22:28.362Z,10.35
2023-01-31T05:24:57.570Z,10.52
2023-01-31T05:27:25.595Z,10.77
2023-01-31T05:29:52.829Z,10.68
2023-01-31T05:32:19.875Z,10.98
2023-01-31T05:34:46.466Z,10.55
2023-01-31T05:37:13.130Z,12.60
2023-01-31T05:39:40.011Z,11.02
2023-01-31T05:42:06.796Z,9.55
2023-01-31T05:44:33.610Z,10.15
2023-01-31T05:47:01.402Z,9.85
2023-01-31T05:49:32.726Z,10.50
2023-01-31T05:52:00.768Z,12.02
2023-01-31T05:54:27.572Z,10.65
2023-01-31T05:56:54.198Z,9.40
2023-01-31T05:59:20.773Z,4.60
2023-01-31T06:01:47.800Z,7.03
2023-01-31T06:04:14.616Z,7.78
2023-01-31T06:06:41.275Z,7.03
2023-01-31T06:09:07.923Z,8.75
2023-01-31T06:11:34.650Z,9.80
2023-01-31T06:14:01.247Z,10.57
2023-01-31T06:16:27.871Z,9.73
2023-01-31T06:18:55.727Z,10.25
2023-01-31T06:21:22.933Z,9.20
2023-01-31T06:23:49.689Z,9.77
2023-01-31T06:26:16.471Z,11.98
2023-01-31T06:28:45.229Z,10.85
2023-01-31T06:31:13.270Z,10.10
2023-01-31T06:33:46.748Z,10.10
2023-01-31T06:36:18.097Z,10.43
2023-01-31T06:38:49.071Z,11.77
2023-01-31T06:41:16.337Z,11.30
2023-01-31T06:43:42.911Z,11.13
2023-01-31T06:46:09.580Z,11.02
2023-01-31T06:48:36.243Z,11.38
2023-01-31T06:51:03.041Z,11.70
2023-01-31T06:53:29.641Z,12.45
2023-01-31T06:55:56.440Z,13.45
2023-01-31T06:58:23.025Z,11.88
2023-01-31T07:00:49.627Z,12.13
2023-01-31T07:03:16.266Z,13.10
2023-01-31T07:05:42.891Z,13.18
2023-01-31T07:08:09.522Z,12.90
2023-01-31T07:10:36.351Z,12.68
2023-01-31T07:13:03.212Z,13.23
2023-01-31T07:15:30.175Z,12.55
2023-01-31T07:18:00.257Z,12.73
2023-01-31T07:20:27.340Z,12.93
2023-01-31T07:22:56.741Z,14.00
2023-01-31T07:25:24.008Z,12.57
2023-01-31T07:27:50.610Z,13.32
2023-01-31T07:30:17.528Z,14.00
2023-01-31T07:32:44.289Z,13.77
2023-01-31T07:35:10.834Z,15.07
2023-01-31T07:37:39.430Z,14.02
2023-01-31T07:40:07.077Z,15.75
2023-01-31T07:42:33.676Z,15.65
2023-01-31T07:45:10.058Z,14.32
2023-01-31T07:47:43.886Z,14.60
2023-01-31T07:50:11.358Z,14.23
2023-01-31T07:52:37.937Z,15.35
2023-01-31T07:55:04.893Z,15.48
2023-01-31T07:57:32.212Z,14.75
2023-01-31T07:59:58.882Z,15.27
2023-01-31T08:02:43.698Z,14.75
2023-01-31T08:05:11.451Z,14.45
2023-01-31T08:07:38.273Z,14.95
2023-01-31T08:10:18.249Z,16.20
2023-01-31T08:12:44.818Z,15.85
2023-01-31T08:15:11.975Z,15.27
2023-01-31T08:17:38.531Z,16.25
2023-01-31T08:20:05.433Z,15.60
2023-01-31T08:22:32.008Z,14.43
2023-01-31T08:24:58.570Z,13.15
2023-01-31T08:27:25.151Z,15.20
2023-01-31T08:29:51.888Z,15.43
2023-01-31T08:32:18.473Z,14.45
2023-01-31T08:34:45.044Z,13.95
2023-01-31T08:37:11.799Z,14.25
2023-01-31T08:39:38.406Z,14.43
2023-01-31T08:42:05.044Z,14.32
2023-01-31T08:44:32.586Z,14.20
2023-01-31T08:47:01.972Z,15.32
2023-01-31T08:49:29.142Z,14.48
2023-01-31T08:51:56.073Z,15.32
2023-01-31T08:54:22.626Z,14.63
2023-01-31T08:56:49.195Z,14.98
2023-01-31T08:59:15.782Z,14.60
2023-01-31T09:01:44.060Z,13.80
2023-01-31T09:04:10.792Z,14.40
2023-01-31T09:06:37.429Z,14.20
2023-01-31T09:09:04.197Z,13.65
2023-01-31T09:11:31.581Z,13.80
2023-01-31T09:13:58.550Z,13.50
2023-01-31T09:16:25.237Z,12.18
2023-01-31T09:18:53.235Z,14.10
2023-01-31T09:21:21.882Z,13.15
2023-01-31T09:23:49.041Z,13.13
2023-01-31T09:26:16.296Z,13.85
2023-01-31T09:28:43.559Z,12.82
2023-01-31T09:31:13.824Z,13.40
2023-01-31T09:33:41.257Z,14.52
2023-01-31T09:36:16.550Z,13.80
2023-01-31T09:38:43.290Z,14.65
2023-01-31T09:41:34.917Z,13.73
2023-01-31T09:44:11.317Z,14.20
2023-01-31T09:46:42.492Z,14.48
2023-01-31T09:49:18.170Z,14.77
2023-01-31T09:51:45.990Z,14.80
2023-01-31T09:54:21.169Z,15.38
2023-01-31T09:57:20.085Z,15.20
2023-01-31T10:00:14.522Z,15.07
2023-01-31T10:03:19.614Z,15.63
2023-01-31T10:05:50.191Z,16.08
2023-01-31T10:08:16.782Z,14.90
2023-01-31T10:10:46.307Z,14.60
2023-01-31T10:13:34.346Z,15.38
2023-01-31T10:16:17.926Z,14.45
2023-01-31T10:18:54.058Z,15.25
2023-01-31T10:21:25.982Z,15.50
2023-01-31T10:26:30.613Z,14.65
2023-01-31T10:29:18.737Z,13.15
2023-01-31T10:31:53.645Z,14.15
2023-01-31T10:34:22.937Z,16.42
2023-01-31T10:36:59.550Z,14.80
2023-01-31T10:39:35.312Z,15.10
2023-01-31T10:42:30.417Z,13.98
2023-01-31T10:45:17.188Z,14.52
2023-01-31T10:47:51.835Z,14.35
2023-01-31T10:50:28.723Z,13.82
2023-01-31T10:53:13.522Z,14.73
2023-01-31T10:55:54.793Z,12.18
2023-01-31T10:58:23.902Z,13.10
2023-01-31T11:00:50.782Z,13.32
2023-01-31T11:03:18.293Z,11.75
2023-01-31T11:05:53.996Z,11.80
2023-01-31T11:08:35.140Z,12.55
2023-01-31T11:11:08.245Z,12.15
2023-01-31T11:13:35.214Z,12.02
2023-01-31T11:16:04.627Z,11.80
2023-01-31T11:18:45.378Z,11.93
2023-01-31T11:21:20.184Z,11.65
2023-01-31T11:23:46.837Z,10.25
2023-01-31T11:26:15.562Z,10.85
2023-01-31T11:28:42.304Z,11.02
2023-01-31T11:31:25.086Z,11.27
2023-01-31T11:33:59.540Z,10.07
2023-01-31T11:36:27.021Z,9.57
2023-01-31T11:38:54.874Z,10.82
2023-01-31T11:41:33.654Z,10.75
2023-01-31T11:44:10.925Z,10.60
2023-01-31T11:46:51.899Z,11.05
2023-01-31T11:49:42.806Z,10.73
2023-01-31T11:52:20.659Z,10.82
2023-01-31T11:54:55.097Z,11.10
2023-01-31T11:57:32.338Z,9.55
2023-01-31T12:00:01.356Z,10.45
2023-01-31T12:02:31.962Z,10.63
2023-01-31T12:05:00.777Z,10.43
2023-01-31T12:07:40.553Z,11.27
2023-01-31T12:10:25.582Z,9.68
2023-01-31T12:12:53.052Z,9.30
2023-01-31T12:15:19.863Z,9.38
2023-01-31T12:17:49.845Z,10.23
2023-01-31T12:20:36.771Z,10.48
2023-01-31T12:23:50.581Z,9.73
2023-01-31T12:26:26.578Z,9.30
2023-01-31T12:29:21.007Z,9.85
2023-01-31T12:32:06.023Z,10.35
2023-01-31T12:35:08.038Z,9.40
2023-01-31T12:38:11.415Z,10.02
2023-01-31T12:40:44.039Z,9.75
2023-01-31T12:43:52.556Z,9.80
2023-01-31T12:46:25.104Z,9.23
2023-01-31T12:49:00.859Z,9.90
2023-01-31T12:51:59.359Z,9.00
2023-01-31T12:54:44.151Z,10.18
2023-01-31T12:57:30.618Z,10.57
2023-01-31T13:00:10.787Z,8.63
2023-01-31T13:02:58.555Z,9.40
2023-01-31T13:05:37.328Z,8.20
2023-01-31T13:08:30.346Z,7.97
2023-01-31T13:11:22.548Z,9.10
2023-01-31T13:13:55.931Z,8.82
2023-01-31T13:16:31.654Z,8.98
2023-01-31T13:19:03.349Z,8.23
2023-01-31T13:21:34.771Z,8.90
2023-01-31T13:24:15.866Z,7.43
2023-01-31T13:27:04.040Z,8.00
2023-01-31T13:29:52.334Z,8.10
2023-01-31T13:32:39.236Z,7.97
2023-01-31T13:35:14.221Z,8.35
2023-01-31T13:37:43.936Z,8.60
2023-01-31T13:40:26.237Z,7.85
2023-01-31T13:42:54.588Z,7.72
2023-01-31T13:45:30.178Z,7.78
2023-01-31T13:48:05.413Z,7.32
2023-01-31T13:50:53.782Z,8.48
2023-01-31T13:53:26.356Z,7.03
2023-01-31T13:55:53.539Z,7.63
2023-01-31T13:58:24.531Z,8.20
2023-01-31T14:00:59.426Z,8.25
2023-01-31T14:03:26.547Z,8.07
2023-01-31T14:06:01.690Z,8.18
2023-01-31T14:08:49.976Z,8.75
2023-01-31T14:11:22.053Z,8.20
2023-01-31T14:16:31.843Z,8.15
2023-01-31T14:18:58.689Z,8.00
2023-01-31T14:21:31.672Z,8.55
2023-01-31T14:23:59.188Z,8.50
2023-01-31T14:26:50.418Z,8.65
2023-01-31T14:29:21.613Z,9.05
2023-01-31T14:31:50.087Z,9.73
2023-01-31T14:34:37.053Z,8.65
2023-01-31T14:37:23.843Z,9.43
2023-01-31T14:39:59.519Z,9.00
2023-01-31T14:42:40.009Z,8.48
2023-01-31T14:45:31.277Z,9.32
2023-01-31T14:48:16.380Z,9.30
2023-01-31T14:51:10.412Z,8.75
2023-01-31T14:53:55.167Z,8.98
2023-01-31T14:56:40.104Z,9.00
2023-01-31T14:59:48.850Z,9.00
2023-01-31T15:02:34.344Z,9.25
2023-01-31T15:05:09.963Z,8.75
2023-01-31T15:07:36.683Z,9.27
2023-01-31T15:10:04.881Z,8.90
2023-01-31T15:13:00.704Z,8.57
2023-01-31T15:15:37.954Z,8.07
2023-01-31T15:18:16.387Z,8.30
2023-01-31T15:20:45.681Z,8.68
2023-01-31T15:23:21.412Z,7.40
2023-01-31T15:25:49.883Z,7.57
2023-01-31T15:28:20.260Z,7.45
2023-01-31T15:30:48.646Z,7.32
2023-01-31T15:33:22.461Z,6.78
2023-01-31T15:36:13.261Z,6.35
2023-01-31T15:38:52.010Z,5.82
2023-01-31T15:41:18.635Z,5.72
2023-01-31T15:43:46.383Z,5.50
2023-01-31T15:46:35.931Z,5.05
2023-01-31T15:49:02.741Z,5.82
2023-01-31T15:51:29.780Z,5.90
2023-01-31T15:54:08.473Z,4.65
2023-01-31T15:56:39.551Z,5.88
2023-01-31T15:59:14.010Z,5.67
2023-01-31T16:01:47.770Z,5.47
2023-01-31T16:04:14.501Z,4.88
2023-01-31T16:06:41.358Z,4.75
2023-01-31T16:09:23.045Z,4.78
2023-01-31T16:11:49.856Z,5.60
2023-01-31T16:14:16.900Z,5.20
2023-01-31T16:16:48.149Z,5.10
2023-01-31T16:19:22.884Z,4.38
2023-01-31T16:21:49.765Z,3.97
2023-01-31T16:24:17.610Z,4.80
2023-01-31T16:27:01.359Z,4.28
2023-01-31T16:29:45.290Z,5.03
2023-01-31T16:32:24.108Z,4.47
2023-01-31T16:35:03.678Z,4.65
2023-01-31T16:37:30.317Z,4.57
2023-01-31T16:40:02.627Z,4.57
2023-01-31T16:42:31.180Z,4.40
2023-01-31T16:44:58.221Z,4.22
2023-01-31T16:47:40.130Z,5.65
2023-01-31T16:50:32.838Z,4.20
2023-01-31T16:53:15.692Z,4.97
2023-01-31T16:55:42.332Z,4.75
2023-01-31T16:58:10.541Z,4.70
2023-01-31T17:00:37.524Z,4.25
2023-01-31T17:03:14.367Z,4.90
2023-01-31T17:05:47.290Z,4.97
2023-01-31T17:08:18.180Z,4.53
2023-01-31T17:10:48.124Z,4.63
2023-01-31T17:13:20.770Z,5.20
2023-01-31T17:15:48.382Z,5.00
2023-01-31T17:18:15.635Z,5.13
2023-01-31T17:20:45.052Z,5.07
2023-01-31T17:23:13.981Z,4.95
2023-01-31T17:25:42.795Z,4.80
2023-01-31T17:28:10.153Z,4.68
2023-01-31T17:30:42.927Z,4.85
2023-01-31T17:33:13.518Z,4.35
2023-01-31T17:35:42.964Z,5.30
2023-01-31T17:38:09.506Z,5.28
2023-01-31T17:40:39.659Z,5.43
2023-01-31T17:43:06.606Z,5.53
2023-01-31T17:45:33.316Z,4.63
2023-01-31T17:48:00.215Z,5.10
2023-01-31T17:50:28.523Z,5.20
2023-01-31T17:52:55.765Z,5.20
2023-01-31T17:55:25.098Z,5.05
2023-01-31T17:57:52.189Z,4.65
2023-01-31T18:00:20.428Z,5.03
2023-01-31T18:02:47.148Z,4.35
2023-01-31T18:05:18.674Z,4.72
2023-01-31T18:07:49.816Z,5.07
2023-01-31T18:10:17.531Z,4.78
2023-01-31T18:12:44.956Z,4.38
2023-01-31T18:15:12.150Z,5.03
2023-01-31T18:17:38.730Z,4.32
2023-01-31T18:20:05.916Z,4.80
2023-01-31T18:22:32.513Z,4.57
2023-01-31T18:24:59.119Z,4.35
2023-01-31T18:27:25.760Z,4.07
2023-01-31T18:29:52.330Z,4.18
2023-01-31T18:32:20.199Z,4.72
2023-01-31T18:34:46.908Z,4.30
2023-01-31T18:37:20.058Z,4.95
2023-01-31T18:39:51.061Z,4.47
2023-01-31T18:42:18.294Z,4.45
2023-01-31T18:44:45.080Z,4.53
2023-01-31T18:47:12.567Z,4.78
2023-01-31T18:49:39.397Z,4.20
2023-01-31T18:52:09.518Z,4.25
2023-01-31T18:54:37.576Z,4.50
2023-01-31T18:57:04.577Z,3.92
2023-01-31T18:59:31.221Z,4.65
2023-01-31T19:01:57.855Z,4.20
2023-01-31T19:04:24.591Z,4.47
2023-01-31T19:06:51.492Z,4.35
2023-01-31T19:09:18.844Z,4.63
2023-01-31T19:11:45.835Z,4.35
2023-01-31T19:14:13.705Z,4.13
2023-01-31T19:16:41.979Z,3.92
2023-01-31T19:19:09.903Z,4.55
2023-01-31T19:21:37.921Z,4.38
2023-01-31T19:24:10.941Z,4.35
2023-01-31T19:26:37.582Z,4.18
2023-01-31T19:29:05.100Z,4.25
2023-01-31T19:31:33.904Z,4.80
2023-01-31T19:34:03.164Z,4.18
2023-01-31T19:36:38.175Z,4.35
2023-01-31T19:39:07.279Z,4.40
2023-01-31T19:41:34.075Z,3.63
2023-01-31T19:44:01.838Z,3.92
2023-01-31T19:46:30.801Z,4.10
2023-01-31T19:48:58.790Z,4.50
2023-01-31T19:51:26.285Z,4.35
2023-01-31T19:54:01.378Z,4.05
2023-01-31T19:56:28.467Z,4.38
2023-01-31T19:58:55.157Z,4.28
2023-01-31T20:01:22.067Z,4.30
2023-01-31T20:03:50.144Z,4.20
2023-01-31T20:06:22.514Z,4.68
2023-01-31T20:08:59.804Z,5.40
2023-01-31T20:11:27.776Z,5.15
2023-01-31T20:13:57.316Z,5.10
2023-01-31T20:16:24.179Z,5.15
2023-01-31T20:18:51.427Z,5.10
2023-01-31T20:21:19.898Z,5.88
2023-01-31T20:23:47.067Z,6.20
2023-01-31T20:26:15.596Z,6.30
2023-01-31T20:28:43.461Z,5.78
2023-01-31T20:31:13.499Z,5.80
2023-01-31T20:33:40.188Z,5.80
2023-01-31T20:36:07.533Z,6.10
2023-01-31T20:38:34.299Z,5.65
2023-01-31T20:41:01.111Z,5.45
2023-01-31T20:43:28.081Z,5.47
2023-01-31T20:46:03.226Z,6.20
2023-01-31T20:48:29.836Z,5.95
2023-01-31T20:50:57.467Z,5.93
2023-01-31T20:53:25.182Z,5.82
2023-01-31T20:55:56.701Z,5.63
2023-01-31T20:58:24.452Z,5.93
2023-01-31T21:00:55.853Z,6.63
2023-01-31T21:03:23.404Z,6.57
2023-01-31T21:05:50.578Z,6.35
2023-01-31T21:08:18.116Z,6.55
2023-01-31T21:10:56.146Z,6.63
2023-01-31T21:13:24.175Z,8.07
2023-01-31T21:15:55.702Z,7.50
2023-01-31T21:18:25.962Z,8.00
2023-01-31T21:20:52.941Z,7.22
2023-01-31T21:23:19.506Z,8.07
2023-01-31T21:25:46.236Z,7.72
2023-01-31T21:28:12.911Z,8.00
2023-01-31T21:30:39.733Z,7.85
2023-01-31T21:33:06.585Z,8.07
2023-01-31T21:35:33.273Z,8.35
2023-01-31T21:37:59.905Z,7.55
2023-01-31T21:40:26.492Z,7.43
2023-01-31T21:42:54.472Z,7.70
2023-01-31T21:45:39.984Z,8.05
2023-01-31T21:48:30.306Z,8.25
2023-01-31T21:50:57.573Z,8.65
2023-01-31T21:53:26.381Z,7.88
2023-01-31T21:56:12.158Z,7.07
2023-01-31T21:58:39.568Z,8.60
2023-01-31T22:01:19.588Z,8.32
2023-01-31T22:03:51.049Z,8.48
2023-01-31T22:06:25.746Z,8.02
2023-01-31T22:08:53.916Z,8.98
2023-01-31T22:11:20.756Z,8.75
2023-01-31T22:13:51.631Z,8.73
2023-01-31T22:16:21.036Z,8.32
2023-01-31T22:18:48.419Z,7.88
2023-01-31T22:21:17.759Z,8.85
2023-01-31T22:23:50.351Z,9.27
2023-01-31T22:26:28.925Z,8.20
2023-01-31T22:28:57.507Z,8.90
2023-01-31T22:31:24.396Z,8.50
2023-01-31T22:33:51.411Z,7.97
2023-01-31T22:36:18.838Z,7.53
2023-01-31T22:38:46.198Z,8.55
2023-01-31T22:41:14.859Z,8.13
2023-01-31T22:43:44.431Z,8.73
2023-01-31T22:46:16.697Z,8.30
2023-01-31T22:48:43.805Z,7.93
2023-01-31T22:51:13.787Z,7.82
2023-01-31T22:53:41.724Z,8.38
2023-01-31T22:56:14.801Z,7.97
2023-01-31T22:58:42.113Z,8.18
2023-01-31T23:01:20.744Z,8.00
2023-01-31T23:03:48.282Z,7.90
2023-01-31T23:06:16.513Z,8.20
2023-01-31T23:08:43.876Z,8.55
2023-01-31T23:11:15.968Z,8.10
2023-01-31T23:16:15.962Z,8.32
2023-01-31T23:18:42.575Z,8.07
2023-01-31T23:21:10.720Z,7.97
2023-01-31T23:23:37.580Z,8.10
2023-01-31T23:26:05.356Z,7.55
2023-01-31T23:28:32.568Z,8.65
2023-01-31T23:30:59.472Z,8.07
2023-01-31T23:33:26.512Z,8.75
2023-01-31T23:35:53.107Z,8.05
2023-01-31T23:38:19.824Z,8.07
2023-01-31T23:40:55.539Z,8.40
2023-01-31T23:43:23.151Z,8.70
2023-01-31T23:45:50.034Z,8.48
2023-01-31T23:48:16.676Z,8.73
2023-01-31T23:50:43.695Z,8.25
2023-01-31T23:53:10.399Z,8.07
2023-01-31T23:55:37.238Z,9.00
2023-01-31T23:58:04.130Z,7.50
